New Johannesburg, Wisconsin
Current Conditions -  °F | °C
As of 11:50 PM on Saturday 22 Nov 2014 (Local Time) from KRNH Reporting Station
Haze Haze  
Wind Chill:   Ceiling: 200
Heat Index:   Visibility: 2mi
Dew Point:   Wind: 10mph
Humidity: 100%   Direction: 140°SE
Pressure: 29.53"   Gusts: NA
Location:  45.1804°N, 92.551°W
Report Text: KRNH 230550Z AUTO 14009KT 2SM BR OVC002 04/04 A2953 RMK AO2 T00370037 10037 20013 400370000
Loading
Personal Weather Stations






























Interactive Weather Map New forecast layout! Learn more

10-Day Weather Forecast

Advertisements
Track Severe Weather on mobile